Time;durP1;ratioP1;P1;durP2;ratioP2;P2;SDS_P1;SDS_P2;PMS_P1;PMS_P2;Temp;Humidity;BMP_temperature;BMP_pressure;BME280_temperature;BME280_humidity;BME280_pressure;Samples;Min_cycle;Max_cycle;Signal;HPM_P1;HPM_P2
2022/12/24 00:01:39;;;;;;;10.98;5.18;;;;;;;8.87;100.00;100288.97;4985290;28;20022;-88
2022/12/24 00:04:05;;;;;;;15.07;5.32;;;;;;;8.95;100.00;100305.41;4975969;28;20046;-89
2022/12/24 00:06:30;;;;;;;17.83;5.32;;;;;;;8.91;100.00;100309.34;4984421;28;20034;-88
2022/12/24 00:08:56;;;;;;;14.23;5.40;;;;;;;8.84;100.00;100295.34;5007774;28;20035;-87
2022/12/24 00:11:21;;;;;;;25.45;6.00;;;;;;;8.91;100.00;100326.09;4984799;28;20014;-86
2022/12/24 00:13:47;;;;;;;23.45;5.72;;;;;;;8.80;100.00;100300.06;4985561;28;20041;-89
2022/12/24 00:16:13;;;;;;;27.25;5.25;;;;;;;8.92;100.00;100316.56;4985749;28;20163;-89
2022/12/24 00:18:38;;;;;;;30.80;7.25;;;;;;;8.79;100.00;100307.66;4989137;28;20034;-88
2022/12/24 00:21:05;;;;;;;31.90;6.05;;;;;;;8.86;100.00;100318.09;4985206;28;20046;-88
2022/12/24 00:23:31;;;;;;;30.17;5.53;;;;;;;8.88;100.00;100329.69;4983065;28;20077;-89
2022/12/24 00:25:56;;;;;;;29.95;6.40;;;;;;;8.88;100.00;100327.69;4981694;28;20046;-89
2022/12/24 00:28:22;;;;;;;23.70;5.40;;;;;;;8.86;100.00;100338.41;4995663;28;20037;-89
2022/12/24 00:30:47;;;;;;;30.27;7.13;;;;;;;8.90;100.00;100332.88;4983919;28;20149;-89
2022/12/24 00:33:13;;;;;;;29.35;4.60;;;;;;;8.91;100.00;100331.69;4988953;28;20112;-90
2022/12/24 00:35:39;;;;;;;25.75;6.68;;;;;;;8.90;100.00;100341.25;4982012;28;20049;-89
2022/12/24 00:38:05;;;;;;;33.88;6.88;;;;;;;8.83;100.00;100335.56;4981747;28;20096;-89
2022/12/24 00:40:31;;;;;;;34.75;6.00;;;;;;;8.90;100.00;100344.06;4983248;28;20042;-90
2022/12/24 00:42:57;;;;;;;39.03;8.82;;;;;;;8.84;100.00;100345.56;4977696;28;20039;-89
2022/12/24 00:45:23;;;;;;;46.92;7.28;;;;;;;8.72;100.00;100339.03;4980513;28;20038;-89
2022/12/24 00:47:48;;;;;;;32.30;7.07;;;;;;;8.86;100.00;100357.94;4981584;28;20038;-90
2022/12/24 00:50:14;;;;;;;42.13;5.88;;;;;;;8.83;100.00;100341.16;4982766;28;20030;-86
2022/12/24 00:52:40;;;;;;;32.00;5.88;;;;;;;8.87;100.00;100342.00;4971598;28;20081;-89
2022/12/24 00:55:06;;;;;;;30.38;6.18;;;;;;;8.88;100.00;100363.97;4984140;28;20037;-89
2022/12/24 00:57:32;;;;;;;50.80;8.68;;;;;;;8.73;100.00;100362.97;4989849;28;20759;-88
2022/12/24 00:59:57;;;;;;;29.85;5.88;;;;;;;8.88;100.00;100371.53;4980886;28;20245;-88
2022/12/24 01:02:22;;;;;;;41.90;8.35;;;;;;;8.88;100.00;100377.13;4979296;28;20493;-89
2022/12/24 01:07:32;;;;;;;35.80;7.25;;;;;;;8.94;100.00;100376.41;4988380;28;20073;-88
2022/12/24 01:09:58;;;;;;;33.00;5.63;;;;;;;8.95;100.00;100380.00;4987503;28;20053;-88
2022/12/24 01:12:24;;;;;;;33.25;6.53;;;;;;;8.86;100.00;100371.13;4989304;28;20109;-89
2022/12/24 01:14:49;;;;;;;45.25;6.65;;;;;;;8.94;100.00;100397.94;5003651;28;20036;-88
2022/12/24 01:17:14;;;;;;;36.83;8.02;;;;;;;8.96;100.00;100395.56;4988382;28;20030;-89
2022/12/24 01:19:40;;;;;;;29.38;6.93;;;;;;;8.98;100.00;100393.22;5003543;28;20033;-88
2022/12/24 01:22:05;;;;;;;40.78;7.85;;;;;;;8.93;100.00;100407.47;4988814;28;20077;-89
2022/12/24 01:24:31;;;;;;;30.50;5.18;;;;;;;8.95;100.00;100410.69;4983318;28;20044;-89
2022/12/24 01:26:56;;;;;;;38.20;6.25;;;;;;;9.03;100.00;100417.97;5004138;28;20030;-89
2022/12/24 01:29:21;;;;;;;31.70;6.32;;;;;;;8.99;100.00;100419.94;4989354;28;20053;-89
2022/12/24 01:31:47;;;;;;;34.17;6.95;;;;;;;8.91;100.00;100418.22;4988381;28;20069;-88
2022/12/24 01:34:12;;;;;;;43.30;7.70;;;;;;;8.97;100.00;100435.44;4980591;28;20531;-89
2022/12/24 01:36:37;;;;;;;55.38;6.72;;;;;;;8.98;100.00;100432.28;4979125;28;20053;-89
2022/12/24 01:39:03;;;;;;;37.08;5.45;;;;;;;8.93;100.00;100430.59;4993682;28;20042;-88
2022/12/24 01:44:25;;;;;;;36.38;7.25;;;;;;;9.00;100.00;100446.63;4978827;28;20080;-89
2022/12/24 01:46:55;;;;;;;32.58;6.45;;;;;;;9.04;100.00;100460.66;4974523;28;20068;-90
2022/12/24 01:49:21;;;;;;;48.83;9.68;;;;;;;8.98;100.00;100459.38;4976527;28;20499;-89
2022/12/24 01:52:13;;;;;;;37.03;9.15;;;;;;;9.03;100.00;100461.84;4977199;28;20070;-89
2022/12/24 01:54:58;;;;;;;29.48;5.57;;;;;;;9.03;100.00;100457.06;4961373;28;20116;-90
2022/12/24 01:57:29;;;;;;;26.77;5.60;;;;;;;9.00;100.00;100468.97;4975478;28;20037;-88
2022/12/24 01:59:59;;;;;;;29.85;6.10;;;;;;;9.00;100.00;100468.19;4979691;28;20506;-90
2022/12/24 02:02:26;;;;;;;26.38;6.75;;;;;;;8.91;100.00;100465.66;4993170;28;20026;-91
2022/12/24 02:05:16;;;;;;;42.85;7.43;;;;;;;8.99;100.00;100483.34;4983707;28;20390;-90
2022/12/24 02:07:42;;;;;;;33.85;6.50;;;;;;;9.07;100.00;100485.84;5004851;28;20166;-90
2022/12/24 02:10:11;;;;;;;41.50;5.28;;;;;;;8.98;100.00;100485.31;4984552;28;20068;-89
2022/12/24 02:12:38;;;;;;;31.60;7.72;;;;;;;9.04;100.00;100489.38;4985319;28;20030;-89
2022/12/24 02:15:08;;;;;;;43.30;5.72;;;;;;;9.01;100.00;100500.50;4985765;28;20379;-89
2022/12/24 02:17:49;;;;;;;40.35;6.93;;;;;;;9.00;100.00;100505.28;4987979;28;20055;-88
2022/12/24 02:20:30;;;;;;;34.40;6.40;;;;;;;8.97;100.00;100508.81;4994284;28;20083;-90
2022/12/24 02:23:22;;;;;;;36.72;6.57;;;;;;;8.97;100.00;100508.03;4999820;28;20034;-89
2022/12/24 02:26:26;;;;;;;31.23;5.20;;;;;;;9.01;100.00;100508.88;5003827;28;20478;-90
2022/12/24 02:29:10;;;;;;;32.97;6.63;;;;;;;9.00;100.00;100512.84;4995968;28;20056;-89
2022/12/24 02:31:57;;;;;;;37.38;7.25;;;;;;;8.93;100.00;100513.53;4997931;28;20046;-89
2022/12/24 02:34:43;;;;;;;39.53;7.22;;;;;;;8.91;100.00;100515.91;4981575;28;20029;-89
2022/12/24 02:37:18;;;;;;;38.22;7.75;;;;;;;8.92;100.00;100528.69;4983213;28;20275;-89
2022/12/24 02:39:50;;;;;;;40.15;6.20;;;;;;;8.95;100.00;100528.72;4975840;28;20125;-90
2022/12/24 02:42:21;;;;;;;52.70;6.85;;;;;;;9.00;100.00;100535.97;4980935;28;20041;-90
2022/12/24 02:44:52;;;;;;;35.65;7.22;;;;;;;9.01;100.00;100525.63;4985046;28;20046;-89
2022/12/24 02:47:20;;;;;;;33.55;7.28;;;;;;;8.86;100.00;100522.63;4980643;28;20057;-88
2022/12/24 02:49:47;;;;;;;48.95;10.48;;;;;;;8.86;100.00;100544.16;4979247;28;20041;-89
2022/12/24 02:52:32;;;;;;;39.80;6.35;;;;;;;8.88;100.00;100536.22;4985108;28;20026;-89
2022/12/24 02:55:02;;;;;;;49.30;6.72;;;;;;;8.89;100.00;100555.34;4980491;28;20030;-89
2022/12/24 02:57:46;;;;;;;41.28;8.25;;;;;;;8.89;100.00;100546.97;4982891;28;20029;-88
2022/12/24 03:00:16;;;;;;;45.22;7.10;;;;;;;8.84;100.00;100549.31;4981844;28;20034;-89
2022/12/24 03:02:45;;;;;;;49.58;8.55;;;;;;;8.88;100.00;100550.97;4981810;28;20042;-88
2022/12/24 03:06:09;;;;;;;49.22;7.20;;;;;;;8.87;100.00;100556.91;5000115;28;20053;-89
2022/12/24 03:08:41;;;;;;;47.45;7.10;;;;;;;8.91;100.00;100571.72;4928816;29;20047;-89
2022/12/24 03:11:12;;;;;;;30.63;6.17;;;;;;;8.88;100.00;100578.06;4911973;29;20040;-88
2022/12/24 03:13:40;;;;;;;36.58;9.30;;;;;;;8.88;100.00;100580.88;4968991;28;20073;-89
2022/12/24 03:16:11;;;;;;;52.92;10.60;;;;;;;8.79;100.00;100571.94;5000875;28;20076;-89
2022/12/24 03:18:41;;;;;;;46.95;9.00;;;;;;;8.68;100.00;100572.53;5000934;28;20033;-90
2022/12/24 03:21:22;;;;;;;38.92;7.68;;;;;;;8.79;100.00;100591.47;4983167;28;20030;-90
2022/12/24 03:23:48;;;;;;;45.13;7.15;;;;;;;8.86;100.00;100584.03;4999265;28;20022;-89
2022/12/24 03:26:16;;;;;;;42.47;8.73;;;;;;;8.87;100.00;100596.00;4981387;28;20037;-89
2022/12/24 03:28:42;;;;;;;38.28;6.07;;;;;;;8.90;100.00;100600.84;4984000;28;20120;-89
2022/12/24 03:31:09;;;;;;;32.17;8.55;;;;;;;8.84;100.00;100607.91;4983271;28;20498;-89
2022/12/24 03:33:35;;;;;;;40.00;8.15;;;;;;;8.77;100.00;100603.03;4992655;28;20037;-89
2022/12/24 03:36:01;;;;;;;51.03;8.35;;;;;;;8.62;100.00;100574.06;4984033;28;20030;-90
2022/12/24 03:38:26;;;;;;;44.70;6.55;;;;;;;8.77;100.00;100600.22;4987603;28;20034;-89
2022/12/24 03:40:52;;;;;;;44.40;7.00;;;;;;;8.75;100.00;100599.78;4990070;28;20034;-89
2022/12/24 03:43:17;;;;;;;33.80;7.55;;;;;;;8.71;100.00;100601.72;4990136;28;20034;-89
2022/12/24 03:45:42;;;;;;;35.30;6.45;;;;;;;8.77;100.00;100610.56;4989968;28;20037;-90
2022/12/24 03:48:08;;;;;;;44.53;8.10;;;;;;;8.69;100.00;100613.25;4988377;28;20104;-91
2022/12/24 03:50:33;;;;;;;54.63;8.55;;;;;;;8.49;100.00;100608.88;4990194;28;20101;-88
2022/12/24 03:52:58;;;;;;;32.67;7.70;;;;;;;8.64;100.00;100624.69;4987778;28;20498;-90
2022/12/24 03:55:24;;;;;;;44.40;6.85;;;;;;;8.51;100.00;100595.38;4988046;28;20108;-90
2022/12/24 03:57:50;;;;;;;32.63;8.25;;;;;;;8.66;100.00;100616.75;4991614;28;20026;-90
2022/12/24 04:00:16;;;;;;;50.70;8.73;;;;;;;8.63;100.00;100611.13;4991344;28;20082;-89
2022/12/24 04:02:42;;;;;;;43.28;7.97;;;;;;;8.66;100.00;100611.19;4965517;28;20066;-91
2022/12/24 04:05:13;;;;;;;39.53;8.32;;;;;;;8.55;100.00;100616.56;4983954;28;20038;-91
2022/12/24 04:07:38;;;;;;;63.47;9.65;;;;;;;8.49;100.00;100603.31;4987109;28;20049;-89
2022/12/24 04:10:04;;;;;;;44.17;8.13;;;;;;;8.53;100.00;100620.91;4982940;28;20233;-89
2022/12/24 04:12:29;;;;;;;40.85;8.85;;;;;;;8.51;100.00;100614.91;4999711;28;20022;-89
2022/12/24 04:14:54;;;;;;;41.42;6.25;;;;;;;8.49;100.00;100622.81;4990709;28;20081;-90
2022/12/24 04:17:20;;;;;;;38.20;5.82;;;;;;;8.49;100.00;100620.84;4986698;28;20041;-91
2022/12/24 04:19:45;;;;;;;37.97;7.22;;;;;;;8.35;100.00;100612.19;4983956;28;20022;-92
2022/12/24 04:22:10;;;;;;;41.33;7.13;;;;;;;8.35;100.00;100629.72;4983549;28;20035;-91
2022/12/24 04:24:36;;;;;;;51.20;8.57;;;;;;;8.37;100.00;100636.91;4983424;28;20061;-91
2022/12/24 04:27:01;;;;;;;52.95;7.97;;;;;;;8.38;100.00;100638.53;4998721;28;20038;-90
2022/12/24 04:29:26;;;;;;;53.20;7.55;;;;;;;8.38;100.00;100638.53;4981064;28;20026;-90
2022/12/24 04:31:52;;;;;;;51.83;7.25;;;;;;;8.30;100.00;100635.59;4986111;28;20030;-90
2022/12/24 04:34:17;;;;;;;32.17;7.72;;;;;;;8.35;100.00;100618.56;4986681;28;20030;-92
2022/12/24 04:36:43;;;;;;;44.40;7.45;;;;;;;8.25;100.00;100627.53;4983617;28;20066;-92
2022/12/24 04:39:08;;;;;;;44.78;7.97;;;;;;;8.38;100.00;100632.94;4985857;28;20045;-92
2022/12/24 04:41:33;;;;;;;38.90;6.53;;;;;;;8.41;100.00;100649.78;4976308;28;20122;-89
2022/12/24 04:43:59;;;;;;;52.42;9.25;;;;;;;8.34;100.00;100639.25;4985225;28;20563;-92
2022/12/24 04:46:29;;;;;;;38.28;5.75;;;;;;;8.35;100.00;100652.03;4983985;28;20064;-91
2022/12/24 04:48:55;;;;;;;38.92;6.80;;;;;;;8.26;100.00;100642.28;4982181;28;20052;-91
2022/12/24 04:51:21;;;;;;;39.67;7.00;;;;;;;8.37;100.00;100642.47;4982437;28;21685;-91
2022/12/24 04:53:47;;;;;;;48.58;8.82;;;;;;;8.38;100.00;100649.69;4984053;28;20030;-89
2022/12/24 04:56:15;;;;;;;39.63;9.00;;;;;;;8.37;100.00;100651.69;4995507;28;20034;-89
2022/12/24 04:58:41;;;;;;;42.22;7.75;;;;;;;8.39;100.00;100660.47;4996931;28;20030;-90
2022/12/24 05:01:11;;;;;;;35.08;6.88;;;;;;;8.40;100.00;100658.50;4998349;28;20044;-90
2022/12/24 05:03:36;;;;;;;39.42;6.70;;;;;;;8.32;100.00;100654.75;4979016;28;20042;-90
2022/12/24 05:06:12;;;;;;;36.42;7.93;;;;;;;8.31;100.00;100672.66;4994418;28;20023;-91
2022/12/24 05:08:37;;;;;;;46.38;7.32;;;;;;;8.40;100.00;100666.84;4991247;28;20061;-92
2022/12/24 05:11:03;;;;;;;46.35;6.15;;;;;;;8.42;100.00;100667.31;4988063;28;20053;-91
2022/12/24 05:13:29;;;;;;;22.25;5.50;;;;;;;8.29;100.00;100652.72;5003769;28;20053;-90
2022/12/24 05:15:55;;;;;;;39.47;7.05;;;;;;;8.38;100.00;100661.63;4990640;28;20026;-92
2022/12/24 05:18:21;;;;;;;48.88;8.20;;;;;;;8.25;100.00;100658.19;4990176;28;20030;-92
2022/12/24 05:20:47;;;;;;;31.42;5.47;;;;;;;8.23;100.00;100641.03;4999658;28;20042;-90
2022/12/24 05:26:21;;;;;;;33.17;6.00;;;;;;;8.16;100.00;100666.00;4988449;28;20046;-91
2022/12/24 05:28:50;;;;;;;;;;;;;;;8.22;100.00;100674.84;4983099;28;20038;-90
2022/12/24 05:31:17;;;;;;;44.05;7.82;;;;;;;8.26;100.00;100681.31;4988660;28;19913;-91
2022/12/24 05:33:42;;;;;;;33.03;5.88;;;;;;;8.34;100.00;100678.28;4987290;28;20505;-90
2022/12/24 05:36:08;;;;;;;40.67;5.75;;;;;;;8.27;100.00;100694.88;4982705;28;20101;-91
2022/12/24 05:38:33;;;;;;;43.00;6.60;;;;;;;8.21;100.00;100696.34;4986380;28;20026;-92
2022/12/24 05:40:59;;;;;;;36.80;6.25;;;;;;;8.32;100.00;100680.63;4979281;28;20113;-87
2022/12/24 05:43:24;;;;;;;40.60;7.07;;;;;;;8.25;100.00;100697.25;4980508;28;20034;-88
2022/12/24 05:45:50;;;;;;;36.88;7.55;;;;;;;8.21;100.00;100689.97;4984057;28;20034;-88
2022/12/24 05:48:15;;;;;;;43.30;7.72;;;;;;;8.28;100.00;100701.28;4979907;28;20026;-88
2022/12/24 05:50:40;;;;;;;43.90;6.75;;;;;;;8.19;100.00;100698.69;4980268;28;20438;-88
2022/12/24 05:53:06;;;;;;;43.33;8.32;;;;;;;8.26;100.00;100710.00;4986007;28;20026;-88
2022/12/24 05:55:31;;;;;;;46.53;9.00;;;;;;;8.23;100.00;100702.38;4985438;28;20033;-87
2022/12/24 05:57:57;;;;;;;46.20;7.40;;;;;;;8.18;100.00;100697.09;4976973;28;20038;-88
2022/12/24 06:00:22;;;;;;;33.00;7.10;;;;;;;8.23;100.00;100702.38;4981761;28;20039;-88
2022/12/24 06:02:48;;;;;;;31.45;6.25;;;;;;;8.25;100.00;100702.81;4967823;28;20604;-88
2022/12/24 06:05:13;;;;;;;38.45;8.57;;;;;;;8.32;100.00;100702.94;4979541;28;20093;-89
2022/12/24 06:07:38;;;;;;;33.85;8.35;;;;;;;8.29;100.00;100703.69;4985181;28;20033;-89
2022/12/24 06:10:05;;;;;;;43.65;6.35;;;;;;;8.22;100.00;100708.31;4976214;28;20558;-89
2022/12/24 06:12:30;;;;;;;46.83;8.80;;;;;;;8.27;100.00;100706.03;4980833;28;20029;-88
2022/12/24 06:14:55;;;;;;;65.45;8.20;;;;;;;8.19;100.00;100693.13;4984135;28;20034;-88
2022/12/24 06:17:21;;;;;;;44.38;7.63;;;;;;;8.23;100.00;100704.38;4979326;28;20367;-89
2022/12/24 06:19:46;;;;;;;44.60;8.48;;;;;;;8.25;100.00;100696.44;4982570;28;20027;-89
2022/12/24 06:22:11;;;;;;;70.25;10.55;;;;;;;8.27;100.00;100720.00;4981167;28;20117;-89
2022/12/24 06:24:37;;;;;;;39.55;6.95;;;;;;;8.23;100.00;100710.75;4995029;28;20113;-90
2022/12/24 06:27:02;;;;;;;36.22;8.45;;;;;;;8.21;100.00;100701.94;4984561;28;20117;-90
2022/12/24 06:29:27;;;;;;;39.47;8.60;;;;;;;8.23;100.00;100704.38;4995039;28;20058;-90
2022/12/24 06:31:53;;;;;;;37.53;6.85;;;;;;;8.39;100.00;100729.38;4980766;28;20034;-90
2022/12/24 06:34:18;;;;;;;43.30;7.38;;;;;;;8.24;100.00;100712.38;4983797;28;20037;-89
2022/12/24 06:36:44;;;;;;;35.85;8.32;;;;;;;8.35;100.00;100741.28;4984512;28;20022;-89
2022/12/24 06:39:09;;;;;;;49.70;8.82;;;;;;;8.37;100.00;100748.47;4986185;28;20026;-90
2022/12/24 06:41:34;;;;;;;44.40;7.57;;;;;;;8.35;100.00;100740.47;4976590;28;20054;-89
2022/12/24 06:44:00;;;;;;;42.85;7.72;;;;;;;8.40;100.00;100744.94;4983495;28;20437;-89
2022/12/24 06:46:25;;;;;;;45.72;7.90;;;;;;;8.40;100.00;100748.53;4985181;28;20038;-89
2022/12/24 06:48:50;;;;;;;33.33;7.60;;;;;;;8.44;100.00;100748.66;4988087;28;20367;-90
2022/12/24 06:51:18;;;;;;;45.55;7.15;;;;;;;8.32;100.00;100739.22;4982573;28;20042;-89
2022/12/24 06:53:44;;;;;;;42.92;6.15;;;;;;;8.45;100.00;100755.84;4983341;28;20030;-91
2022/12/24 06:56:12;;;;;;;37.72;6.40;;;;;;;8.50;100.00;100763.94;4982701;28;20034;-90
2022/12/24 06:58:39;;;;;;;45.80;7.32;;;;;;;8.53;100.00;100758.41;4991078;28;20116;-90
2022/12/24 07:01:07;;;;;;;47.15;8.80;;;;;;;8.53;100.00;100761.19;4981416;28;20030;-89
2022/12/24 07:03:33;;;;;;;32.47;7.60;;;;;;;8.43;100.00;100747.84;5002680;28;20034;-89
2022/12/24 07:05:59;;;;;;;42.75;7.68;;;;;;;8.58;100.00;100770.44;4992109;28;20053;-90
2022/12/24 07:08:25;;;;;;;33.55;7.85;;;;;;;8.58;100.00;100773.25;4989977;28;20112;-89
2022/12/24 07:10:51;;;;;;;30.58;6.68;;;;;;;8.55;100.00;100772.78;4991066;28;20040;-90
2022/12/24 07:13:17;;;;;;;28.95;7.32;;;;;;;8.61;100.00;100778.09;4989464;28;20033;-91
2022/12/24 07:15:43;;;;;;;39.63;8.15;;;;;;;8.49;100.00;100763.09;4988645;28;20026;-89
2022/12/24 07:18:09;;;;;;;38.72;7.93;;;;;;;8.58;100.00;100771.28;5003555;28;20026;-91
2022/12/24 07:20:35;;;;;;;42.78;8.48;;;;;;;8.53;100.00;100763.19;4991103;28;20094;-90
2022/12/24 07:23:00;;;;;;;44.00;8.77;;;;;;;8.63;100.00;100784.13;4988529;28;20058;-90
2022/12/24 07:25:26;;;;;;;43.22;8.73;;;;;;;8.61;100.00;100781.69;4985348;28;20050;-88
2022/12/24 07:27:51;;;;;;;57.03;10.63;;;;;;;8.60;100.00;100785.66;5003738;28;20038;-90
2022/12/24 07:30:17;;;;;;;46.22;9.27;;;;;;;8.60;100.00;100785.66;4990462;28;20070;-94
2022/12/24 07:32:42;;;;;;;40.40;8.30;;;;;;;8.49;100.00;100767.88;4987752;28;20105;-91
2022/12/24 07:35:08;;;;;;;41.83;7.30;;;;;;;8.65;100.00;100781.78;4983345;28;20057;-90
2022/12/24 07:37:34;;;;;;;44.78;10.00;;;;;;;8.60;100.00;100796.81;4995442;28;20081;-91
2022/12/24 07:39:59;;;;;;;50.50;8.40;;;;;;;8.62;100.00;100800.06;4981336;28;20614;-91
2022/12/24 07:42:25;;;;;;;44.25;10.98;;;;;;;8.44;100.00;100777.34;4977669;28;20026;-91
2022/12/24 07:44:50;;;;;;;51.60;9.85;;;;;;;8.62;100.00;100805.63;4980841;28;20434;-91
2022/12/24 07:47:16;;;;;;;46.20;6.80;;;;;;;8.51;100.00;100790.63;4977114;28;21266;-92
2022/12/24 07:49:41;;;;;;;55.40;11.00;;;;;;;8.60;100.00;100818.31;4981151;28;20061;-92
2022/12/24 07:52:06;;;;;;;33.50;8.75;;;;;;;8.52;100.00;100801.44;4978795;28;20058;-93
2022/12/24 07:54:32;;;;;;;52.05;9.00;;;;;;;8.61;100.00;100817.97;4983149;28;20026;-91
2022/12/24 07:56:57;;;;;;;42.00;11.00;;;;;;;8.62;100.00;100830.75;4995669;28;20042;-92
2022/12/24 07:59:23;;;;;;;47.97;9.48;;;;;;;8.63;100.00;100840.72;4980274;28;20058;-90
2022/12/24 08:01:48;;;;;;;32.47;8.35;;;;;;;8.63;100.00;100834.34;4982635;28;20030;-91
2022/12/24 08:04:13;;;;;;;41.22;8.55;;;;;;;8.64;100.00;100836.75;4981644;28;20462;-91
2022/12/24 08:06:39;;;;;;;46.67;9.40;;;;;;;8.66;100.00;100836.38;4983093;28;20054;-91
2022/12/24 08:09:05;;;;;;;39.92;7.38;;;;;;;8.68;100.00;100848.78;4980677;28;20057;-92
2022/12/24 08:11:30;;;;;;;58.20;8.70;;;;;;;8.53;100.00;100819.78;4997120;28;20037;-94
2022/12/24 08:13:55;;;;;;;45.10;8.38;;;;;;;8.59;100.00;100855.78;4986839;28;20485;-92
2022/12/24 08:16:21;;;;;;;40.97;8.07;;;;;;;8.70;100.00;100856.81;4988361;28;20044;-91
2022/12/24 08:18:47;;;;;;;39.45;8.77;;;;;;;8.69;100.00;100860.78;4981505;28;20030;-92
2022/12/24 08:21:12;;;;;;;37.67;8.00;;;;;;;8.65;100.00;100855.13;4994930;28;20346;-91
2022/12/24 08:23:38;;;;;;;51.95;9.45;;;;;;;8.64;100.00;100861.06;4980489;28;20035;-91
2022/12/24 08:26:07;;;;;;;39.35;8.57;;;;;;;8.72;100.00;100876.78;4984225;28;20057;-92
2022/12/24 08:28:32;;;;;;;38.05;7.35;;;;;;;8.56;100.00;100868.47;4984304;28;20037;-91
2022/12/24 08:30:58;;;;;;;54.80;9.35;;;;;;;8.62;100.00;100875.41;4981283;28;20030;-90
2022/12/24 08:33:23;;;;;;;63.10;10.57;;;;;;;8.65;100.00;100891.41;4999496;28;20085;-91
2022/12/24 08:35:53;;;;;;;47.78;13.32;;;;;;;8.60;100.00;100885.28;4989491;28;20030;-91
2022/12/24 08:38:19;;;;;;;33.03;7.88;;;;;;;8.78;100.00;100902.44;4991965;28;20034;-91
2022/12/24 08:40:48;;;;;;;51.08;9.35;;;;;;;8.76;100.00;100900.00;4987220;28;20046;-91
2022/12/24 08:43:15;;;;;;;35.60;8.48;;;;;;;8.74;100.00;100908.72;4984507;28;20041;-89
2022/12/24 08:45:41;;;;;;;48.42;8.00;;;;;;;8.62;100.00;100889.34;4977728;28;20030;-90
2022/12/24 08:48:07;;;;;;;53.83;7.85;;;;;;;8.72;100.00;100911.06;4993208;28;20037;-89
2022/12/24 08:50:33;;;;;;;42.25;7.22;;;;;;;8.75;100.00;100907.56;4998667;28;20026;-88
2022/12/24 08:52:59;;;;;;;38.70;7.57;;;;;;;8.77;100.00;100917.53;4987037;28;20034;-89
2022/12/24 08:55:25;;;;;;;41.35;10.00;;;;;;;8.71;100.00;100909.47;4986684;28;20054;-90
2022/12/24 08:57:50;;;;;;;46.95;8.15;;;;;;;8.68;100.00;100914.97;4982313;28;20088;-91
2022/12/24 09:00:16;;;;;;;51.38;8.45;;;;;;;8.68;100.00;100895.44;4981243;28;20546;-91
2022/12/24 09:02:42;;;;;;;43.20;7.55;;;;;;;8.72;100.00;100911.06;4986041;28;20096;-89
2022/12/24 09:05:07;;;;;;;57.35;8.73;;;;;;;8.77;100.00;100923.13;4998776;28;20035;-91
2022/12/24 09:07:33;;;;;;;59.22;8.25;;;;;;;8.78;100.00;100925.56;5002474;28;20449;-92
2022/12/24 09:09:58;;;;;;;51.03;9.32;;;;;;;8.75;100.00;100931.88;4988555;28;20466;-91
2022/12/24 09:12:24;;;;;;;40.40;8.57;;;;;;;8.79;100.00;100929.16;4974324;28;20101;-91
2022/12/24 09:14:50;;;;;;;34.30;7.43;;;;;;;8.77;100.00;100923.97;4988425;28;20041;-93
2022/12/24 09:17:15;;;;;;;52.40;7.90;;;;;;;8.62;100.00;100922.84;4978565;28;20030;-92
2022/12/24 09:19:41;;;;;;;50.47;9.10;;;;;;;8.70;100.00;100926.56;4981230;28;20497;-92
2022/12/24 09:22:06;;;;;;;46.63;8.45;;;;;;;8.73;100.00;100929.44;4986172;28;20036;-91
2022/12/24 09:24:31;;;;;;;40.28;7.95;;;;;;;8.79;100.00;100943.94;4983530;28;20022;-92
2022/12/24 09:26:58;;;;;;;46.58;8.43;;;;;;;8.87;100.00;100964.44;4983893;28;20110;-93
2022/12/24 09:29:23;;;;;;;48.35;8.20;;;;;;;8.94;100.00;100961.81;4998366;28;20034;-92
2022/12/24 09:31:49;;;;;;;43.72;6.65;;;;;;;8.94;100.00;100961.81;4981008;28;20109;-92
2022/12/24 09:34:14;;;;;;;51.45;7.70;;;;;;;8.94;100.00;100967.41;4986586;28;20394;-93
2022/12/24 09:36:39;;;;;;;64.10;12.32;;;;;;;8.86;100.00;100966.41;4987797;28;20390;-91
2022/12/24 09:39:05;;;;;;;52.08;9.70;;;;;;;8.82;100.00;100973.09;4988324;28;20037;-91
2022/12/24 09:42:08;;;;;;;58.40;10.43;;;;;;;8.88;100.00;100977.22;5001248;28;20038;-92
2022/12/24 09:44:47;;;;;;;59.97;9.57;;;;;;;8.90;100.00;100972.09;4999322;28;20037;-91
2022/12/24 09:47:56;;;;;;;50.15;9.60;;;;;;;8.76;100.00;100939.06;4982877;28;20641;-90
2022/12/24 09:50:30;;;;;;;45.17;8.68;;;;;;;8.97;100.00;100979.81;4986912;28;20108;-84
2022/12/24 09:52:58;;;;;;;46.60;8.13;;;;;;;8.95;100.00;100985.75;5001560;28;20493;-84
2022/12/24 09:55:33;;;;;;;38.80;7.35;;;;;;;8.93;100.00;100988.09;4986349;28;20037;-84
2022/12/24 09:58:01;;;;;;;49.47;9.50;;;;;;;8.92;100.00;100992.88;5002292;28;20592;-83
2022/12/24 10:00:34;;;;;;;45.72;9.35;;;;;;;8.98;100.00;101007.38;4990262;28;22769;-84
2022/12/24 10:03:00;;;;;;;41.08;8.70;;;;;;;8.98;100.00;100998.16;5004876;28;20046;-83
2022/12/24 10:05:39;;;;;;;64.85;12.20;;;;;;;8.93;100.00;100996.47;4983050;28;20382;-84
2022/12/24 10:08:10;;;;;;;44.45;11.05;;;;;;;8.91;100.00;100996.03;4984723;28;20085;-83
2022/12/24 10:10:45;;;;;;;46.33;8.20;;;;;;;8.88;100.00;100999.56;5002388;28;20029;-83
2022/12/24 10:13:18;;;;;;;41.03;8.07;;;;;;;8.98;100.00;101007.38;4989682;28;22176;-83
2022/12/24 10:16:13;;;;;;;49.95;8.93;;;;;;;8.98;100.00;101015.75;5004757;28;20129;-83
2022/12/24 10:18:51;;;;;;;50.75;9.18;;;;;;;8.95;100.00;101019.25;5003602;28;20045;-84
2022/12/24 10:21:46;;;;;;;50.20;9.43;;;;;;;9.03;100.00;101026.63;4996509;28;20037;-83
2022/12/24 10:24:28;;;;;;;42.25;9.00;;;;;;;9.00;100.00;101023.75;4989166;28;20454;-84
2022/12/24 10:27:01;;;;;;;48.60;11.77;;;;;;;8.98;100.00;101024.13;4983361;28;20037;-84
2022/12/24 10:29:31;;;;;;;56.15;9.45;;;;;;;9.01;100.00;101026.19;4983386;28;20613;-84
2022/12/24 10:32:08;;;;;;;37.28;7.82;;;;;;;9.04;100.00;101027.44;4988198;28;20475;-84
2022/12/24 10:35:13;;;;;;;54.80;7.57;;;;;;;9.00;100.00;101021.75;4990412;28;20153;-84
2022/12/24 10:37:39;;;;;;;45.47;8.48;;;;;;;9.02;100.00;101013.03;4983058;28;20737;-84
2022/12/24 10:40:05;;;;;;;48.78;7.13;;;;;;;9.03;100.00;101026.63;5007417;28;20383;-84
2022/12/24 10:42:43;;;;;;;54.42;8.88;;;;;;;9.07;100.00;101033.09;4987060;28;20030;-83
2022/12/24 10:45:15;;;;;;;39.08;8.43;;;;;;;9.04;100.00;101021.84;4988082;28;20041;-84
2022/12/24 10:47:44;;;;;;;45.95;9.68;;;;;;;9.07;100.00;101021.94;4986501;28;21545;-84
2022/12/24 10:50:17;;;;;;;44.08;7.13;;;;;;;9.08;100.00;101020.75;5003096;28;20125;-84
2022/12/24 10:52:44;;;;;;;41.58;10.07;;;;;;;9.08;100.00;101023.53;4992156;28;20023;-84
2022/12/24 10:55:18;;;;;;;47.50;8.20;;;;;;;9.10;100.00;101028.75;4990672;28;20043;-84
2022/12/24 10:57:45;;;;;;;50.33;8.13;;;;;;;9.11;100.00;101034.00;4996558;28;20033;-84
2022/12/24 11:00:19;;;;;;;44.70;7.22;;;;;;;9.06;100.00;101025.09;4993688;28;20537;-84
2022/12/24 11:02:46;;;;;;;34.72;7.47;;;;;;;9.14;100.00;101026.88;4987963;28;20039;-84
2022/12/24 11:05:35;;;;;;;35.72;6.53;;;;;;;9.10;100.00;101023.19;4986812;28;20045;-84
2022/12/24 11:08:05;;;;;;;36.55;6.60;;;;;;;9.20;100.00;101044.16;4993216;28;20026;-85
2022/12/24 11:10:34;;;;;;;30.27;7.72;;;;;;;9.22;100.00;101050.19;4986788;28;20528;-84
2022/12/24 11:13:00;;;;;;;42.72;8.75;;;;;;;9.21;100.00;101040.97;4986987;28;20045;-83
2022/12/24 11:15:33;;;;;;;43.25;9.35;;;;;;;9.25;100.00;101032.69;4993366;28;20491;-84
2022/12/24 11:18:05;;;;;;;30.73;6.53;;;;;;;9.30;100.00;101041.59;4989855;28;20463;-86
2022/12/24 11:20:33;;;;;;;49.97;8.35;;;;;;;9.31;100.00;101053.56;4982528;28;20034;-86
2022/12/24 11:23:00;;;;;;;46.13;8.02;;;;;;;9.53;100.00;101058.47;4984581;28;20042;-82
2022/12/24 11:25:37;;;;;;;43.80;7.13;;;;;;;9.44;100.00;101066.22;4985155;28;20065;-82
2022/12/24 11:28:24;;;;;;;30.58;5.97;;;;;;;11.30;100.00;101065.22;4985760;28;20416;-83
2022/12/24 11:31:00;;;;;;;43.70;7.28;;;;;;;10.04;100.00;101065.88;4996303;28;20022;-82
2022/12/24 11:33:27;;;;;;;46.65;9.48;;;;;;;9.73;100.00;101069.66;5001163;28;20037;-82